Sunnybrook, California
Current Conditions -  °F | °C
As of 5:49 PM on Monday 20 Oct 2014 (Local Time) from KMHR Reporting Station
Broken Clouds Broken Clouds  
Wind Chill: 66°   Ceiling: 6500
Heat Index: 66°   Visibility: 10mi
Dew Point: 54°   Wind: 8mph
Humidity: 64%   Direction: 190°S
Pressure: 29.92"   Gusts: NA
Location:  38.3354°N, 120.942°W
Report Text: KMHR 210049Z 19007KT 10SM SCT049 BKN065 19/12 A2992
Loading
Personal Weather Stations






























Interactive Weather Map
Tropical Storm Tracking
New forecast layout! Learn more

10-Day Weather Forecast

Advertisements
Track Severe Weather on mobile